Alexander, KS

10:24 PM CDT on July 22, 2014 (GMT -0500)
Sarrada Farms 2.0 N, 2.3 E (KKSROZEL2) Elev 2073 ft | 38.22 °N, 99.36 °W | Change Station

Current weather conditions updated 0 second ago

Clear
Clear
80.4 °F
Feels Like 83 °F
N
4.0
Wind Variable Wind from SSE
Gusts 6.0 mph

Tomorrow is forecast to be Cooler than today.

Today
High -- | Low -- °F
--% Chance of Precip.
Yesterday
High -- | Low -- °F
Precip. -- in
6:31 AM 8:57 PM
Waning Crescent, 13% visible
Pressure 30.11 in
Visibility 10.0 miles
Clouds Clear
Heat Index 83 °F
Dew Point 69 °F
Humidity 68%
Rainfall 0.00 in
Snow Depth Not available.
UV 0.0 out of 12
Pollen 5.50 out of 12
Air Quality Not available.
Flu Activity Not available.
METAR KHYS 230315Z AUTO 15005KT 10SM CLR 26/18 A3011 RMK AO1

More Conditions Fewer Conditions

Pressure 30.11 in
Visibility 10.0 miles
Clouds Clear
Heat Index 83 °F
Dew Point 69 °F
Humidity 68%
Rainfall 0.00 in
Snow Depth Not available.
UV 0.0 out of 12
Pollen 5.50 out of 12
Air Quality Not available.
Flu Activity Not available.
METAR KHYS 230315Z AUTO 15005KT 10SM CLR 26/18 A3011 RMK AO1

More Conditions Fewer Conditions

10-Day Weather Forecast

Almanac

Astronomy

Jul. 22, 2014 Rise Set
Actual Time 6:31 AM CDT 8:57 PM CDT
Civil Twilight 6:01 AM CDT 9:27 PM CDT
Nautical Twilight 5:23 AM CDT 10:04 PM CDT
Astronomical Twilight 4:42 AM CDT 10:45 PM CDT
Moon 3:05 AM CDT (7/22) 5:36 PM CDT (7/22)
Length of Visible Light 15h 25m
Length of Day
14h 25m
Tomorrow will be 1m 35s shorter.
Waning Crescent, 13% of the Moon is Illuminated
Today
Waning Crescent
Jul 26
New
Aug 3
First Quarter
Aug 10
Full
Aug 17
Last Quarter

Today's Extremes

State Highs State Lows

Community

WunderPhotos

Upload Photos

1,736,481 photos uploaded!

Nearby

Snow Depth

Station Depth Elevation
No new snow has been reported.

Earthquake Activity

City Distance Mag. Time & Date
Helena, Oklahoma 147 miles 3.2 8:41 AM CDT
2014-07-18
Cherokee, Oklahoma 144 miles 2.5 10:35 AM CDT
2014-07-17
Caldwell, Kansas 134 miles 3.6 5:40 AM CDT
2014-07-17
Medford, Oklahoma 155 miles 2.5 4:18 AM CDT
2014-07-16
Minimum magnitude displayed is 2.5.

Coastal Water Temperatures

Place Temperature
No Stations Reporting

Nearby Weather Stations

Station Location Temp. Heat Index Dew Point Humidity Wind Precip. Elev Updated Type
Sarrada Farms 2.0 N, 2.3 E, Rozel, KS 80.4 °F 83 °F 69 °F 68% SSE  at  4.0 mph 0.00 in / hr 2073 ft 10:24 PM CDT Rapid Fire

Show More Stations Show Fewer Stations